Time;durP1;ratioP1;P1;durP2;ratioP2;P2;SDS_P1;SDS_P2;PMS_P1;PMS_P2;Temp;Humidity;BMP_temperature;BMP_pressure;BME280_temperature;BME280_humidity;BME280_pressure;Samples;Min_cycle;Max_cycle;Signal;HPM_P1;HPM_P2
2023/07/05 00:01:36;;;;;;;18.67;8.47;;;;;;;16.23;100.00;100302.25;5043516;28;20040;-74
2023/07/05 00:04:01;;;;;;;24.23;9.00;;;;;;;16.26;100.00;100301.78;5035129;28;20067;-74
2023/07/05 00:06:27;;;;;;;14.77;7.50;;;;;;;16.27;100.00;100289.63;5031611;28;20476;-74
2023/07/05 00:08:52;;;;;;;20.03;7.90;;;;;;;16.28;100.00;100271.97;5044163;28;20029;-74
2023/07/05 00:11:19;;;;;;;14.03;7.63;;;;;;;16.26;100.00;100267.75;5049035;28;20393;-74
2023/07/05 00:13:44;;;;;;;;;;;;;;;16.27;100.00;100250.94;5048110;28;20028;-73
2023/07/05 00:16:11;;;;;;;18.58;7.18;;;;;;;16.36;100.00;100248.59;5047605;28;19916;-73
2023/07/05 00:18:37;;;;;;;18.27;7.38;;;;;;;16.29;100.00;100231.34;5047538;28;20072;-73
2023/07/05 00:21:07;;;;;;;14.43;7.18;;;;;;;16.25;100.00;100224.63;5044627;28;20048;-73
2023/07/05 00:23:35;;;;;;;18.60;7.25;;;;;;;16.29;100.00;100223.91;5046612;28;20037;-75
2023/07/05 00:26:02;;;;;;;15.95;6.95;;;;;;;16.31;100.00;100229.16;5047374;28;20152;-72
2023/07/05 00:28:27;;;;;;;10.95;6.32;;;;;;;16.29;100.00;100220.28;5046380;28;20043;-74
2023/07/05 00:30:53;;;;;;;23.27;6.53;;;;;;;16.33;100.00;100205.72;5045531;28;20065;-74
2023/07/05 00:33:18;;;;;;;11.97;6.47;;;;;;;16.35;100.00;100202.72;5044945;28;20029;-73
2023/07/05 00:35:48;;;;;;;14.10;5.57;;;;;;;16.30;100.00;100195.19;5047190;28;20112;-72
2023/07/05 00:38:14;;;;;;;14.68;6.35;;;;;;;16.32;100.00;100181.13;5046633;28;20021;-73
2023/07/05 00:40:40;;;;;;;19.95;5.97;;;;;;;16.31;100.00;100171.97;5048831;28;20029;-73
2023/07/05 00:43:06;;;;;;;16.97;6.43;;;;;;;16.42;100.00;100160.03;5031743;28;20087;-73
2023/07/05 00:45:43;;;;;;;12.57;5.53;;;;;;;16.36;100.00;100149.09;5049165;28;20047;-74
2023/07/05 00:48:17;;;;;;;13.25;5.95;;;;;;;16.43;100.00;100147.88;5044714;28;20067;-73
2023/07/05 00:50:49;;;;;;;12.35;4.78;;;;;;;16.42;100.00;100151.72;5047674;28;20033;-74
2023/07/05 00:53:16;;;;;;;9.98;4.60;;;;;;;16.47;100.00;100150.97;5046394;28;20033;-73
2023/07/05 00:55:45;;;;;;;;;;;;;;;16.47;100.00;100145.44;5052822;28;20554;-73
2023/07/05 00:58:10;;;;;;;9.77;4.05;;;;;;;16.52;100.00;100137.22;5048369;28;20421;-75
2023/07/05 01:00:36;;;;;;;8.80;4.20;;;;;;;16.48;100.00;100150.72;5048722;28;20024;-72
2023/07/05 01:03:05;;;;;;;6.97;3.77;;;;;;;16.45;100.00;100153.16;5050306;28;20044;-71
2023/07/05 01:05:31;;;;;;;9.05;3.67;;;;;;;16.50;100.00;100156.00;5049807;28;20039;-72
2023/07/05 01:07:56;;;;;;;9.37;3.53;;;;;;;16.56;100.00;100160.50;5054512;28;20021;-72
2023/07/05 01:10:25;;;;;;;6.10;2.67;;;;;;;16.51;100.00;100147.47;5051411;28;20395;-72
2023/07/05 01:13:02;;;;;;;4.40;2.30;;;;;;;16.47;100.00;100150.97;5050128;28;20028;-73
2023/07/05 01:15:34;;;;;;;;;;;;;;;16.39;100.00;100154.16;5050899;28;20039;-72
2023/07/05 01:18:21;;;;;;;4.18;2.42;;;;;;;16.32;100.00;100154.28;5063838;28;19966;-72
2023/07/05 01:20:55;;;;;;;7.25;2.47;;;;;;;16.27;100.00;100150.63;5045845;28;20941;-73
2023/07/05 01:24:00;;;;;;;6.40;2.45;;;;;;;16.23;100.00;100152.19;5051355;28;20060;-72
2023/07/05 01:26:35;;;;;;;8.68;2.33;;;;;;;16.17;100.00;100156.78;5043282;28;20476;-72
2023/07/05 01:29:19;;;;;;;7.47;2.38;;;;;;;16.07;100.00;100164.06;5051849;28;20029;-72
2023/07/05 01:31:54;;;;;;;4.78;2.38;;;;;;;16.01;100.00;100173.38;5047995;28;20033;-73
2023/07/05 01:34:59;;;;;;;4.78;2.15;;;;;;;15.91;100.00;100173.19;5046354;28;20029;-72
2023/07/05 01:37:43;;;;;;;6.57;2.50;;;;;;;15.85;100.00;100177.75;4986948;28;20038;-72
2023/07/05 01:40:20;;;;;;;9.00;2.60;;;;;;;15.81;100.00;100184.03;5045689;28;20048;-72
2023/07/05 01:42:48;;;;;;;5.30;2.15;;;;;;;15.74;100.00;100181.41;5066241;28;20049;-72
2023/07/05 01:45:14;;;;;;;5.35;2.33;;;;;;;15.73;100.00;100200.97;5049462;28;20041;-72
2023/07/05 01:47:56;;;;;;;12.00;2.53;;;;;;;15.64;100.00;100188.69;5047545;28;20032;-72
2023/07/05 01:50:34;;;;;;;9.65;2.15;;;;;;;15.63;100.00;100198.06;5050753;28;20029;-72
2023/07/05 01:53:19;;;;;;;8.90;2.05;;;;;;;15.48;100.00;100208.78;5048431;28;20486;-73
2023/07/05 01:55:49;;;;;;;4.70;2.22;;;;;;;15.50;100.00;100192.78;5049609;28;20033;-72
2023/07/05 01:58:19;;;;;;;6.63;2.47;;;;;;;15.43;100.00;100190.16;5047519;28;20477;-71
2023/07/05 02:00:47;;;;;;;8.10;2.60;;;;;;;15.39;100.00;100201.94;5046790;28;20028;-71
2023/07/05 02:03:17;;;;;;;8.23;3.40;;;;;;;15.30;100.00;100208.88;5064905;28;20041;-71
2023/07/05 02:05:45;;;;;;;7.05;3.67;;;;;;;15.28;100.00;100208.31;5050966;28;20024;-72
2023/07/05 02:08:10;;;;;;;11.00;4.10;;;;;;;15.32;100.00;100206.75;5050110;28;20104;-73
2023/07/05 02:10:36;;;;;;;6.70;3.80;;;;;;;15.22;100.00;100215.63;5048541;28;20108;-72
2023/07/05 02:13:06;;;;;;;13.00;5.33;;;;;;;15.19;100.00;100218.88;5045909;28;20029;-71
2023/07/05 02:15:32;;;;;;;8.18;4.28;;;;;;;15.15;100.00;100203.06;5043910;28;20024;-72
2023/07/05 02:17:58;;;;;;;11.17;5.13;;;;;;;15.12;100.00;100209.91;5047910;28;20480;-72
2023/07/05 02:20:23;;;;;;;12.47;5.00;;;;;;;14.97;100.00;100216.97;5049052;28;20032;-72
2023/07/05 02:22:49;;;;;;;8.13;4.30;;;;;;;14.90;100.00;100219.84;5046455;28;20028;-72
2023/07/05 02:25:14;;;;;;;10.57;4.10;;;;;;;14.86;100.00;100212.31;5050564;28;20060;-72
2023/07/05 02:27:40;;;;;;;10.27;3.97;;;;;;;14.84;100.00;100225.50;5047454;28;20016;-71
2023/07/05 02:30:09;;;;;;;8.57;4.37;;;;;;;14.67;100.00;100202.50;5046752;28;20036;-73
2023/07/05 02:32:34;;;;;;;10.43;4.53;;;;;;;14.60;100.00;100208.13;5045536;28;20030;-70
2023/07/05 02:35:01;;;;;;;11.50;4.13;;;;;;;14.54;100.00;100217.34;5052668;28;20082;-70
2023/07/05 02:37:27;;;;;;;10.20;5.00;;;;;;;14.57;100.00;100202.25;5045877;28;20120;-71
2023/07/05 02:39:53;;;;;;;12.50;4.70;;;;;;;14.52;100.00;100210.41;5048262;28;20029;-71
2023/07/05 02:42:19;;;;;;;9.05;4.50;;;;;;;14.52;100.00;100210.41;5048876;28;20469;-72
2023/07/05 02:44:48;;;;;;;13.27;4.63;;;;;;;14.60;100.00;100208.13;5049756;28;20064;-71
2023/07/05 02:47:13;;;;;;;10.80;4.90;;;;;;;14.46;100.00;100198.38;5049451;28;20028;-71
2023/07/05 02:49:39;;;;;;;9.20;4.40;;;;;;;14.58;100.00;100193.72;5050119;28;20029;-71
2023/07/05 02:52:04;;;;;;;9.90;4.67;;;;;;;14.56;100.00;100192.31;5047651;28;20083;-71
2023/07/05 02:54:30;;;;;;;8.50;4.10;;;;;;;14.53;100.00;100190.03;5051826;28;20513;-71
2023/07/05 02:56:55;;;;;;;8.50;4.27;;;;;;;14.53;100.00;100199.13;5049287;28;20106;-71
2023/07/05 02:59:22;;;;;;;22.03;4.57;;;;;;;14.56;100.00;100193.13;5048408;28;20090;-72
2023/07/05 03:01:47;;;;;;;12.13;4.57;;;;;;;14.54;100.00;100208.22;5049032;28;20075;-73
2023/07/05 03:04:13;;;;;;;12.93;4.70;;;;;;;14.54;100.00;100192.53;5065283;28;20037;-72
2023/07/05 03:06:38;;;;;;;9.15;4.75;;;;;;;14.57;100.00;100186.53;5049248;28;20051;-72
2023/07/05 03:09:04;;;;;;;8.13;4.70;;;;;;;14.60;100.00;100190.72;5048420;28;20395;-72
2023/07/05 03:11:29;;;;;;;10.57;5.50;;;;;;;14.53;100.00;100185.38;5050148;28;20037;-73
2023/07/05 03:13:55;;;;;;;9.40;4.47;;;;;;;14.54;100.00;100187.03;5045876;28;20107;-71
2023/07/05 03:16:20;;;;;;;11.70;5.30;;;;;;;14.55;100.00;100190.59;5047272;28;20517;-72
2023/07/05 03:18:45;;;;;;;11.53;4.73;;;;;;;14.55;100.00;100190.59;5047341;28;20036;-72
2023/07/05 03:21:11;;;;;;;10.17;4.67;;;;;;;14.57;100.00;100177.44;5044988;28;20037;-72
2023/07/05 03:23:36;;;;;;;6.83;4.73;;;;;;;14.51;100.00;100170.97;5046118;28;20471;-73
2023/07/05 03:26:04;;;;;;;12.17;4.60;;;;;;;14.52;100.00;100186.41;5050497;28;20036;-73
2023/07/05 03:28:32;;;;;;;11.55;5.25;;;;;;;14.48;100.00;100189.91;5046528;28;20100;-72
2023/07/05 03:31:05;;;;;;;7.35;4.75;;;;;;;14.52;100.00;100191.94;5046242;28;20412;-73
2023/07/05 03:33:32;;;;;;;15.43;5.35;;;;;;;14.53;100.00;100195.53;5043215;28;20520;-71
2023/07/05 03:35:59;;;;;;;10.93;5.15;;;;;;;14.47;100.00;100191.78;5048183;28;20116;-72
2023/07/05 03:38:28;;;;;;;12.25;5.88;;;;;;;14.51;100.00;100183.91;5048634;28;20029;-72
2023/07/05 03:41:04;;;;;;;12.02;5.55;;;;;;;14.49;100.00;100186.06;5049896;28;20028;-73
2023/07/05 03:43:32;;;;;;;10.95;5.30;;;;;;;14.47;100.00;100169.75;5048306;28;20037;-71
2023/07/05 03:46:02;;;;;;;13.40;5.57;;;;;;;14.41;100.00;100172.66;5044235;28;20473;-73
2023/07/05 03:48:30;;;;;;;9.32;5.68;;;;;;;14.43;100.00;100189.78;5048093;28;20036;-71
2023/07/05 03:50:57;;;;;;;12.38;5.30;;;;;;;14.47;100.00;100174.44;5046675;28;20396;-72
2023/07/05 03:53:23;;;;;;;17.58;6.10;;;;;;;14.52;100.00;100169.88;5047498;28;20029;-71
2023/07/05 03:55:49;;;;;;;11.38;5.68;;;;;;;14.46;100.00;100173.59;5049431;28;20040;-72
2023/07/05 03:58:14;;;;;;;13.37;5.47;;;;;;;14.49;100.00;100177.78;5048761;28;20036;-72
2023/07/05 04:00:41;;;;;;;10.13;5.83;;;;;;;14.48;100.00;100174.22;5045334;28;20074;-72
2023/07/05 04:03:07;;;;;;;13.10;6.15;;;;;;;14.45;100.00;100171.06;5044729;28;20021;-72
2023/07/05 04:05:32;;;;;;;15.00;6.57;;;;;;;14.49;100.00;100167.63;5047278;28;20500;-72
2023/07/05 04:07:59;;;;;;;11.77;5.23;;;;;;;14.49;100.00;100175.03;5028785;28;20033;-73
2023/07/05 04:10:25;;;;;;;12.90;6.10;;;;;;;14.45;100.00;100171.06;5046573;28;20501;-73
2023/07/05 04:12:50;;;;;;;10.80;5.23;;;;;;;14.41;100.00;100180.91;5048859;28;20110;-72
2023/07/05 04:15:16;;;;;;;10.20;5.77;;;;;;;14.25;100.00;100185.19;5047999;28;20480;-73
2023/07/05 04:17:41;;;;;;;14.60;6.23;;;;;;;14.17;100.00;100176.41;5049087;28;20028;-72
2023/07/05 04:20:07;;;;;;;13.27;6.10;;;;;;;14.05;100.00;100203.94;5049792;28;20035;-73
2023/07/05 04:22:39;;;;;;;9.77;5.87;;;;;;;14.04;100.00;100202.22;5043215;28;20424;-72
2023/07/05 04:25:05;;;;;;;9.90;5.13;;;;;;;14.00;100.00;100201.03;5050166;28;20268;-72
2023/07/05 04:27:30;;;;;;;14.50;5.70;;;;;;;13.96;100.00;100198.97;5048577;28;20025;-74
2023/07/05 04:29:56;;;;;;;10.47;5.57;;;;;;;13.96;100.00;100215.50;5046881;28;20021;-73
2023/07/05 04:32:21;;;;;;;9.63;5.13;;;;;;;13.95;100.00;100198.16;5042757;28;20472;-73
2023/07/05 04:34:47;;;;;;;10.20;4.97;;;;;;;13.88;100.00;100202.91;5042345;28;20025;-73
2023/07/05 04:37:12;;;;;;;11.07;5.07;;;;;;;13.93;100.00;100208.53;5049891;28;20037;-74
2023/07/05 04:39:39;;;;;;;11.90;5.20;;;;;;;13.91;100.00;100196.94;5046975;28;20033;-74
2023/07/05 04:42:05;;;;;;;12.70;5.30;;;;;;;13.80;100.00;100197.75;5051355;28;20055;-71
2023/07/05 04:44:30;;;;;;;7.67;3.83;;;;;;;13.90;100.00;100192.50;5049465;28;20041;-74
2023/07/05 04:46:55;;;;;;;13.93;4.37;;;;;;;13.84;100.00;100211.88;5052337;28;20055;-76
2023/07/05 04:49:21;;;;;;;14.63;3.87;;;;;;;13.65;100.00;100200.06;5051739;28;20032;-76
2023/07/05 04:51:46;;;;;;;9.83;2.70;;;;;;;13.55;100.00;100199.78;5052820;28;20029;-76
2023/07/05 04:54:13;;;;;;;5.23;1.90;;;;;;;13.61;100.00;100193.34;5050006;28;20425;-75
2023/07/05 04:56:38;;;;;;;5.70;1.90;;;;;;;13.44;100.00;100195.06;5051492;28;20033;-76
2023/07/05 04:59:04;;;;;;;6.00;2.00;;;;;;;13.46;100.00;100203.91;5052095;28;20389;-76
2023/07/05 05:01:30;;;;;;;4.15;1.58;;;;;;;13.42;100.00;100201.88;5048116;28;20071;-74
2023/07/05 05:03:55;;;;;;;5.57;1.80;;;;;;;13.43;100.00;100204.38;5048258;28;20056;-75
2023/07/05 05:06:21;;;;;;;5.10;1.77;;;;;;;13.52;100.00;100208.50;5053871;28;20025;-76
2023/07/05 05:08:46;;;;;;;10.63;2.20;;;;;;;13.56;100.00;100209.72;5060891;22;20579;-74
2023/07/05 05:11:11;;;;;;;7.93;2.43;;;;;;;13.58;100.00;100223.25;5034499;28;20029;-74
2023/07/05 05:13:37;;;;;;;11.83;2.93;;;;;;;13.66;100.00;100214.69;5033745;28;20091;-75
2023/07/05 05:16:03;;;;;;;8.43;3.03;;;;;;;13.73;100.00;100220.94;5034480;28;20488;-75
2023/07/05 05:18:31;;;;;;;7.22;2.97;;;;;;;13.73;100.00;100210.78;5032634;28;20033;-74
2023/07/05 05:20:57;;;;;;;7.85;2.90;;;;;;;13.79;100.00;100208.97;5031138;28;20105;-76
2023/07/05 05:23:23;;;;;;;9.88;3.83;;;;;;;13.83;100.00;100211.03;5032411;28;20064;-77
2023/07/05 05:25:49;;;;;;;14.20;3.13;;;;;;;13.73;100.00;100209.91;5034804;28;20034;-77
2023/07/05 05:28:16;;;;;;;14.63;3.33;;;;;;;13.49;100.00;100216.38;5037946;28;20037;-76
2023/07/05 05:30:43;;;;;;;23.10;4.47;;;;;;;13.40;100.00;100235.09;5031985;28;20032;-77
2023/07/05 05:33:12;;;;;;;9.15;3.15;;;;;;;13.35;100.00;100270.72;5032852;28;20095;-75
2023/07/05 05:35:37;;;;;;;9.18;2.92;;;;;;;13.23;100.00;100252.47;5037396;28;20074;-77
2023/07/05 05:38:03;;;;;;;8.70;3.10;;;;;;;13.13;100.00;100261.22;5033230;28;20033;-76
2023/07/05 05:40:33;;;;;;;6.97;2.58;;;;;;;13.15;100.00;100288.50;5031350;28;20068;-76
2023/07/05 05:42:58;;;;;;;8.40;3.03;;;;;;;13.00;100.00;100271.53;5033970;28;20032;-76
2023/07/05 05:45:24;;;;;;;11.70;2.80;;;;;;;12.95;100.00;100282.34;5032806;28;20104;-76
2023/07/05 05:47:49;;;;;;;12.03;2.73;;;;;;;12.80;100.00;100290.13;5032526;28;20056;-76
2023/07/05 05:50:15;;;;;;;8.50;2.80;;;;;;;12.71;100.00;100288.69;5028789;28;20072;-75
2023/07/05 05:52:41;;;;;;;8.97;2.80;;;;;;;12.71;100.00;100296.94;5030895;28;20032;-75
2023/07/05 05:55:07;;;;;;;9.17;3.13;;;;;;;12.65;100.00;100295.09;5034424;28;20036;-76
2023/07/05 05:57:32;;;;;;;14.60;2.57;;;;;;;12.61;100.00;100302.09;5037525;28;20036;-75
2023/07/05 05:59:58;;;;;;;8.63;2.93;;;;;;;12.62;100.00;100307.38;5032039;28;20096;-75
2023/07/05 06:02:23;;;;;;;14.57;2.80;;;;;;;12.65;100.00;100314.34;5030346;28;20029;-75
2023/07/05 06:04:48;;;;;;;15.30;2.77;;;;;;;12.67;100.00;100318.53;5036631;28;20044;-76
2023/07/05 06:07:14;;;;;;;13.67;2.87;;;;;;;12.68;100.00;100322.97;5030314;28;20056;-75
2023/07/05 06:09:44;;;;;;;18.83;4.00;;;;;;;12.55;100.00;100338.72;5032231;28;20057;-77
2023/07/05 06:12:09;;;;;;;21.02;3.55;;;;;;;12.59;100.00;100315.22;5033518;28;20592;-77
2023/07/05 06:14:35;;;;;;;13.70;3.43;;;;;;;12.51;100.00;100321.84;5032955;28;20102;-76
2023/07/05 06:17:00;;;;;;;16.90;2.87;;;;;;;12.62;100.00;100342.25;5031926;28;20105;-76
2023/07/05 06:19:26;;;;;;;10.80;2.60;;;;;;;12.60;100.00;100338.88;5030015;28;20480;-76
2023/07/05 06:21:51;;;;;;;18.07;3.00;;;;;;;12.58;100.00;100319.03;5023223;28;20501;-76
2023/07/05 06:24:17;;;;;;;12.00;2.40;;;;;;;12.47;100.00;100322.47;5027087;28;20030;-76
2023/07/05 06:26:42;;;;;;;15.07;3.03;;;;;;;12.54;100.00;100334.28;5029601;28;20033;-76
2023/07/05 06:29:07;;;;;;;10.03;3.20;;;;;;;12.56;100.00;100332.16;5029070;28;20554;-76
2023/07/05 06:31:33;;;;;;;17.70;2.97;;;;;;;12.58;100.00;100341.84;5029160;28;20025;-76
2023/07/05 06:34:02;;;;;;;13.27;2.60;;;;;;;12.53;100.00;100349.91;5031280;28;20027;-76
2023/07/05 06:36:27;;;;;;;13.63;2.83;;;;;;;12.62;100.00;100334.00;5032470;28;20381;-75
2023/07/05 06:38:54;;;;;;;12.80;3.10;;;;;;;12.67;100.00;100335.03;5022217;28;20029;-76
2023/07/05 06:41:19;;;;;;;14.82;2.97;;;;;;;12.74;100.00;100340.44;5032544;28;20036;-76
2023/07/05 06:43:45;;;;;;;12.20;3.00;;;;;;;12.81;100.00;100342.09;5031443;28;20037;-76
2023/07/05 06:46:10;;;;;;;15.00;3.13;;;;;;;12.90;100.00;100349.00;5029887;28;20029;-75
2023/07/05 06:48:36;;;;;;;24.43;4.57;;;;;;;13.04;100.00;100334.13;5030849;28;20363;-76
2023/07/05 06:51:02;;;;;;;11.03;3.13;;;;;;;13.12;100.00;100353.06;5032651;28;20022;-76
2023/07/05 06:53:27;;;;;;;18.33;3.33;;;;;;;13.18;100.00;100326.56;5032795;28;20111;-76
2023/07/05 06:55:52;;;;;;;9.93;2.50;;;;;;;13.36;100.00;100373.34;5030593;28;20025;-76
2023/07/05 06:58:21;;;;;;;14.03;3.37;;;;;;;13.43;100.00;100358.47;5031253;28;20061;-76
2023/07/05 07:00:47;;;;;;;16.83;3.45;;;;;;;13.44;100.00;100375.81;5024765;28;20505;-76
2023/07/05 07:03:13;;;;;;;9.10;3.83;;;;;;;13.47;100.00;100376.22;5029401;28;20033;-76
2023/07/05 07:05:39;;;;;;;15.00;3.67;;;;;;;13.38;100.00;100373.97;5026366;28;20044;-74
2023/07/05 07:08:04;;;;;;;13.17;3.37;;;;;;;13.40;100.00;100386.41;5027233;28;20124;-75
2023/07/05 07:10:30;;;;;;;11.50;3.53;;;;;;;13.45;100.00;100405.03;5029058;28;20087;-75
2023/07/05 07:12:55;;;;;;;12.60;4.20;;;;;;;13.48;100.00;100385.28;5030391;28;20604;-75
2023/07/05 07:15:21;;;;;;;16.90;3.60;;;;;;;13.52;100.00;100390.13;5030352;28;20780;-75
2023/07/05 07:17:47;;;;;;;16.13;3.40;;;;;;;13.53;100.00;100430.34;5030004;28;20477;-76
2023/07/05 07:20:14;;;;;;;12.70;3.60;;;;;;;13.41;100.00;100442.31;5026337;28;20092;-76
2023/07/05 07:22:39;;;;;;;7.70;3.83;;;;;;;13.54;100.00;100436.66;5031648;28;20822;-77
2023/07/05 07:25:06;;;;;;;10.87;4.63;;;;;;;13.63;100.00;100429.81;5027989;28;20108;-76
2023/07/05 07:27:31;;;;;;;13.15;4.35;;;;;;;13.68;100.00;100443.72;5023185;28;20021;-76
2023/07/05 07:29:56;;;;;;;14.13;4.10;;;;;;;13.72;100.00;100444.97;5029176;28;20591;-76
2023/07/05 07:32:22;;;;;;;11.00;3.83;;;;;;;13.79;100.00;100451.25;5030226;28;20033;-75
2023/07/05 07:34:51;;;;;;;8.07;3.47;;;;;;;13.81;100.00;100444.44;5028665;28;20481;-74
2023/07/05 07:37:17;;;;;;;15.23;3.47;;;;;;;13.69;100.00;100472.94;5028799;28;20026;-75
2023/07/05 07:39:42;;;;;;;11.43;3.53;;;;;;;13.57;100.00;100461.00;5029916;28;20051;-76
2023/07/05 07:42:10;;;;;;;18.00;4.50;;;;;;;13.54;100.00;100469.69;5029007;28;20057;-75
2023/07/05 07:44:35;;;;;;;9.30;4.00;;;;;;;13.64;100.00;100470.00;5026139;28;20099;-75
2023/07/05 07:47:00;;;;;;;15.57;4.60;;;;;;;13.79;100.00;100478.78;5028650;28;20481;-75
2023/07/05 07:49:26;;;;;;;12.80;4.10;;;;;;;13.94;100.00;100484.75;5026204;28;20068;-74
2023/07/05 07:51:51;;;;;;;12.53;3.77;;;;;;;14.07;100.00;100466.19;5027582;28;20051;-74
2023/07/05 07:54:20;;;;;;;19.40;6.07;;;;;;;14.24;100.00;100469.22;5027266;28;20063;-75
2023/07/05 07:56:47;;;;;;;20.27;3.97;;;;;;;14.30;100.00;100487.56;5021622;28;20409;-75
2023/07/05 07:59:14;;;;;;;18.45;3.70;;;;;;;14.36;100.00;100497.66;5018851;28;20070;-74
2023/07/05 08:01:40;;;;;;;20.08;5.15;;;;;;;14.42;100.00;100502.25;5025295;28;20025;-75
2023/07/05 08:04:09;;;;;;;12.93;3.90;;;;;;;14.43;100.00;100504.78;5026326;28;20463;-74
2023/07/05 08:06:46;;;;;;;15.88;4.30;;;;;;;14.49;100.00;100503.88;5026521;28;20061;-75
2023/07/05 08:09:17;;;;;;;20.35;4.28;;;;;;;14.60;100.00;100502.22;5027710;28;20068;-74
2023/07/05 08:11:43;;;;;;;13.48;3.70;;;;;;;14.70;100.00;100522.69;5026433;28;20038;-75
2023/07/05 08:14:09;;;;;;;18.80;4.30;;;;;;;14.88;100.00;100505.25;5029012;28;20169;-75
2023/07/05 08:16:35;;;;;;;16.00;3.47;;;;;;;14.96;100.00;100510.44;5022672;28;20033;-73
2023/07/05 08:19:00;;;;;;;16.80;4.15;;;;;;;14.91;100.00;100540.63;5023457;28;20033;-73
2023/07/05 08:21:26;;;;;;;14.93;3.57;;;;;;;15.10;100.00;100523.81;5028751;28;20385;-74
2023/07/05 08:23:51;;;;;;;14.83;4.17;;;;;;;15.48;100.00;100537.28;5025199;28;20030;-73
2023/07/05 08:26:17;;;;;;;10.57;2.90;;;;;;;15.78;99.30;100527.00;5031704;28;20033;-74
2023/07/05 08:28:43;;;;;;;24.80;4.33;;;;;;;16.03;98.77;100530.38;5028722;28;20088;-75
2023/07/05 08:31:08;;;;;;;10.90;2.40;;;;;;;16.29;96.75;100544.56;5029361;28;20649;-75
2023/07/05 08:33:36;;;;;;;11.83;2.23;;;;;;;16.39;94.28;100563.31;5025213;28;20519;-74
2023/07/05 08:36:04;;;;;;;8.85;2.60;;;;;;;16.15;92.96;100548.63;5027281;28;20140;-73
2023/07/05 08:38:30;;;;;;;10.52;3.00;;;;;;;16.15;94.52;100556.06;5027658;28;20037;-74
2023/07/05 08:41:03;;;;;;;19.93;3.17;;;;;;;16.00;93.59;100569.56;5027220;28;20484;-74
2023/07/05 08:43:40;;;;;;;18.40;3.38;;;;;;;16.09;94.35;100579.16;5027013;28;20116;-74
2023/07/05 08:46:10;;;;;;;;;;;;;;;15.89;94.51;100585.03;5032417;28;20053;-75
2023/07/05 08:48:36;;;;;;;14.80;2.67;;;;;;;15.85;92.95;100594.84;5029629;28;19913;-73
2023/07/05 08:51:02;;;;;;;6.97;2.90;;;;;;;15.85;93.79;100594.84;5028219;28;20437;-73
2023/07/05 08:53:28;;;;;;;13.93;4.35;;;;;;;16.03;95.41;100602.22;5026872;28;20476;-74
2023/07/05 08:56:05;;;;;;;16.63;4.33;;;;;;;16.29;93.48;100610.91;5028150;28;20029;-73
2023/07/05 08:58:36;;;;;;;10.65;3.80;;;;;;;16.34;92.70;100612.94;5027497;28;20037;-74
2023/07/05 09:01:05;;;;;;;8.68;3.22;;;;;;;16.28;92.67;100619.44;5022922;28;20043;-73
2023/07/05 09:03:31;;;;;;;17.27;3.58;;;;;;;16.36;93.95;100628.19;5027787;28;20400;-72
2023/07/05 09:06:23;;;;;;;10.13;2.70;;;;;;;16.65;92.25;100640.25;5024257;28;20108;-73
2023/07/05 09:09:09;;;;;;;15.00;3.40;;;;;;;16.52;90.56;100634.94;5027449;28;20122;-73
2023/07/05 09:11:53;;;;;;;14.82;4.18;;;;;;;16.62;90.88;100647.09;5031102;28;20050;-72
2023/07/05 09:14:30;;;;;;;11.63;2.92;;;;;;;16.74;89.02;100660.91;5023776;28;20358;-73
2023/07/05 09:17:04;;;;;;;;;;;;;;;16.73;89.36;100665.63;5022543;28;20037;-72
2023/07/05 09:19:44;;;;;;;10.77;3.08;;;;;;;16.76;88.46;100680.91;5020358;28;20365;-72
2023/07/05 09:22:17;;;;;;;14.70;3.17;;;;;;;16.95;89.07;100683.28;5025458;28;20033;-72
2023/07/05 09:24:44;;;;;;;17.75;3.35;;;;;;;17.02;88.37;100678.44;5028082;28;20033;-73
2023/07/05 09:27:16;;;;;;;14.50;2.90;;;;;;;17.05;87.49;100702.88;5030566;28;20041;-72
2023/07/05 09:29:54;;;;;;;12.23;3.00;;;;;;;17.05;85.09;100690.97;5030302;28;20061;-72
2023/07/05 09:32:28;;;;;;;15.93;2.88;;;;;;;17.24;83.27;100701.63;5022503;28;21818;-71
2023/07/05 09:34:56;;;;;;;15.48;2.92;;;;;;;17.63;81.62;100713.84;5028711;28;20033;-71
2023/07/05 09:37:48;;;;;;;12.07;2.63;;;;;;;17.95;81.31;100721.44;5033552;28;20040;-71
2023/07/05 09:40:16;;;;;;;12.20;2.58;;;;;;;18.11;82.04;100728.09;5029487;28;20108;-72
2023/07/05 09:42:49;;;;;;;6.97;2.35;;;;;;;17.97;79.85;100733.09;5030028;28;20033;-72
2023/07/05 09:45:16;;;;;;;12.30;2.60;;;;;;;18.39;79.74;100740.03;5030320;28;20124;-72
2023/07/05 09:47:43;;;;;;;;;;;;;;;17.94;76.46;100752.16;5044166;28;20022;-71
2023/07/05 09:50:16;;;;;;;8.63;2.00;;;;;;;17.90;76.25;100762.06;5027420;28;19913;-72
2023/07/05 09:52:43;;;;;;;7.40;1.98;;;;;;;18.03;75.87;100768.13;5028159;28;20409;-72
2023/07/05 09:55:12;;;;;;;;;;;;;;;18.00;76.38;100754.78;5029004;28;20112;-72
2023/07/05 09:57:38;;;;;;;10.57;2.15;;;;;;;18.08;77.63;100764.66;5028465;28;20100;-72
2023/07/05 10:00:19;;;;;;;14.33;2.80;;;;;;;17.81;77.67;100769.91;5030377;28;20037;-71
2023/07/05 10:02:48;;;;;;;11.82;2.40;;;;;;;17.91;76.45;100785.91;5029424;28;20039;-71
2023/07/05 10:05:16;;;;;;;16.70;3.10;;;;;;;18.11;75.99;100780.78;5038638;28;20140;-71
2023/07/05 10:08:02;;;;;;;10.48;2.70;;;;;;;18.08;75.06;100775.75;5029370;28;20021;-72
2023/07/05 10:10:40;;;;;;;8.80;2.33;;;;;;;18.13;76.50;100822.94;5028472;28;20029;-73
2023/07/05 10:13:14;;;;;;;13.30;2.10;;;;;;;18.64;74.42;100786.78;5027211;28;20310;-72
2023/07/05 10:15:47;;;;;;;9.35;2.08;;;;;;;18.53;71.76;100807.13;5037721;28;20128;-72
2023/07/05 10:18:31;;;;;;;14.80;2.78;;;;;;;18.10;71.69;100807.63;5033856;28;20113;-71
2023/07/05 10:21:18;;;;;;;12.20;2.20;;;;;;;18.46;72.37;100818.38;5024498;28;21931;-74
2023/07/05 10:23:44;;;;;;;10.77;2.30;;;;;;;18.32;73.70;100822.56;5029046;28;20033;-72
2023/07/05 10:26:11;;;;;;;;;;;;;;;18.65;73.20;100830.09;5038932;28;20056;-73
2023/07/05 10:28:39;;;;;;;14.88;2.53;;;;;;;18.56;71.20;100837.97;5028013;28;19975;-73
2023/07/05 10:31:05;;;;;;;10.30;2.25;;;;;;;18.62;69.74;100833.38;5032605;28;20037;-72
2023/07/05 10:33:32;;;;;;;17.60;2.93;;;;;;;18.30;70.85;100821.09;5037037;28;20023;-72
2023/07/05 10:36:04;;;;;;;12.00;2.97;;;;;;;18.42;72.72;100849.63;5032980;28;20021;-74
2023/07/05 10:38:32;;;;;;;11.35;2.20;;;;;;;18.72;71.83;100839.94;5033052;28;20416;-73
2023/07/05 10:41:01;;;;;;;10.85;2.70;;;;;;;18.64;71.45;100847.84;5028266;28;20031;-72
2023/07/05 10:43:31;;;;;;;17.65;3.03;;;;;;;18.95;70.82;100861.16;5031943;28;20035;-73
2023/07/05 10:45:57;;;;;;;9.30;2.33;;;;;;;19.08;69.27;100872.78;5029454;28;20049;-73
2023/07/05 10:48:42;;;;;;;7.72;1.80;;;;;;;18.77;70.47;100872.47;5033741;28;20072;-72
2023/07/05 10:51:16;;;;;;;8.35;2.05;;;;;;;18.99;70.67;100874.28;5030881;28;20021;-72
2023/07/05 10:53:49;;;;;;;14.27;2.92;;;;;;;19.25;67.72;100889.47;5028724;28;20022;-75
2023/07/05 10:56:22;;;;;;;9.20;2.75;;;;;;;18.81;67.63;100870.91;5026114;28;20056;-73
2023/07/05 10:59:01;;;;;;;11.30;2.20;;;;;;;19.31;66.33;100889.31;5044805;28;20028;-73
2023/07/05 11:01:32;;;;;;;9.60;2.15;;;;;;;18.98;67.56;100888.41;5025485;28;20022;-73
2023/07/05 11:04:06;;;;;;;9.43;1.92;;;;;;;18.65;68.70;100889.22;5023370;28;20036;-72
2023/07/05 11:06:36;;;;;;;17.20;2.40;;;;;;;18.99;67.24;100890.13;5031404;28;21599;-72
2023/07/05 11:09:02;;;;;;;15.75;2.10;;;;;;;18.91;66.54;100910.81;5032911;28;20087;-73
2023/07/05 11:11:35;;;;;;;8.23;2.42;;;;;;;19.00;66.96;100897.34;5034693;28;20021;-73
2023/07/05 11:14:03;;;;;;;8.35;2.55;;;;;;;18.91;67.94;100896.06;5033626;28;20021;-72
2023/07/05 11:16:30;;;;;;;9.35;2.10;;;;;;;19.28;67.46;100898.16;5032001;28;20029;-72
2023/07/05 11:19:04;;;;;;;10.80;2.25;;;;;;;19.23;65.71;100919.44;5038309;28;20543;-73
2023/07/05 11:21:41;;;;;;;8.48;2.33;;;;;;;18.86;66.84;100924.59;5026353;28;20021;-73
2023/07/05 11:24:32;;;;;;;11.02;2.15;;;;;;;18.97;66.32;100929.25;5031295;28;20116;-73